createdAt,value
2022-10-08T00:01:22.487Z,95785.75
2022-10-08T00:03:53.539Z,95779.53
2022-10-08T00:06:22.785Z,95782.56
2022-10-08T00:08:53.246Z,95781.06
2022-10-08T00:11:23.198Z,95779.94
2022-10-08T00:13:52.518Z,95775.94
2022-10-08T00:16:22.762Z,95772.38
2022-10-08T00:18:52.546Z,95772.38
2022-10-08T00:21:21.958Z,95781.00
2022-10-08T00:23:52.991Z,95774.16
2022-10-08T00:26:24.728Z,95775.00
2022-10-08T00:28:54.298Z,95776.22
2022-10-08T00:31:23.773Z,95774.31
2022-10-08T00:33:53.096Z,95773.34
2022-10-08T00:36:20.899Z,95774.44
2022-10-08T00:38:49.394Z,95775.28
2022-10-08T00:41:24.102Z,95773.09
2022-10-08T00:43:53.950Z,95771.72
2022-10-08T00:46:27.033Z,95771.97
2022-10-08T00:49:00.562Z,95766.22
2022-10-08T00:51:28.637Z,95763.59
2022-10-08T00:53:56.324Z,95763.19
2022-10-08T00:56:26.236Z,95758.22
2022-10-08T00:58:54.283Z,95767.56
2022-10-08T01:01:22.672Z,95762.78
2022-10-08T01:03:50.302Z,95756.28
2022-10-08T01:06:27.701Z,95750.41
2022-10-08T01:09:02.202Z,95753.69
2022-10-08T01:11:41.407Z,95745.16
2022-10-08T01:14:20.848Z,95745.28
2022-10-08T01:17:01.234Z,95749.16
2022-10-08T01:20:04.769Z,95743.50
2022-10-08T01:22:51.781Z,95739.94
2022-10-08T01:25:34.283Z,95741.47
2022-10-08T01:28:11.702Z,95738.28
2022-10-08T01:30:42.913Z,95736.91
2022-10-08T01:33:16.387Z,95734.72
2022-10-08T01:35:50.651Z,95731.69
2022-10-08T01:38:23.223Z,95729.59
2022-10-08T01:40:52.911Z,95737.53
2022-10-08T01:43:26.115Z,95741.13
2022-10-08T01:45:58.749Z,95741.28
2022-10-08T01:48:30.942Z,95734.53
2022-10-08T01:51:04.130Z,95741.28
2022-10-08T01:53:38.465Z,95740.31
2022-10-08T01:56:08.863Z,95735.63
2022-10-08T01:58:44.727Z,95732.88
2022-10-08T02:01:16.906Z,95729.19
2022-10-08T02:04:04.478Z,95725.19
2022-10-08T02:06:37.192Z,95717.75
2022-10-08T02:09:05.984Z,95724.47
2022-10-08T02:11:35.741Z,95716.66
2022-10-08T02:14:06.549Z,95710.75
2022-10-08T02:16:39.344Z,95726.13
2022-10-08T02:19:13.452Z,95719.09
2022-10-08T02:21:42.917Z,95711.16
2022-10-08T02:24:15.211Z,95707.00
2022-10-08T02:26:48.107Z,95706.19
2022-10-08T02:29:23.643Z,95708.38
2022-10-08T02:31:55.672Z,95713.06
2022-10-08T02:34:29.068Z,95716.88
2022-10-08T02:37:04.318Z,95719.81
2022-10-08T02:39:35.687Z,95716.06
2022-10-08T02:42:08.974Z,95715.28
2022-10-08T02:44:42.878Z,95715.81
2022-10-08T02:47:14.843Z,95718.97
2022-10-08T02:49:46.195Z,95713.75
2022-10-08T02:52:14.711Z,95716.91
2022-10-08T02:54:44.718Z,95716.38
2022-10-08T02:57:17.074Z,95715.00
2022-10-08T02:59:46.209Z,95714.72
2022-10-08T03:02:20.123Z,95724.09
2022-10-08T03:04:53.652Z,95722.03
2022-10-08T03:07:24.194Z,95721.88
2022-10-08T03:09:54.520Z,95718.31
2022-10-08T03:12:22.223Z,95718.84
2022-10-08T03:14:52.368Z,95717.38
2022-10-08T03:17:25.806Z,95709.78
2022-10-08T03:19:53.438Z,95711.84
2022-10-08T03:22:22.420Z,95715.16
2022-10-08T03:24:53.711Z,95717.59
2022-10-08T03:27:23.707Z,95705.38
2022-10-08T03:29:57.029Z,95707.84
2022-10-08T03:32:24.628Z,95707.34
2022-10-08T03:34:55.289Z,95700.19
2022-10-08T03:37:23.147Z,95711.16
2022-10-08T03:39:50.712Z,95704.31
2022-10-08T03:42:18.416Z,95711.56
2022-10-08T03:44:45.992Z,95714.19
2022-10-08T03:47:14.947Z,95720.25
2022-10-08T03:49:42.621Z,95719.81
2022-10-08T03:52:10.219Z,95718.19
2022-10-08T03:54:38.034Z,95714.31
2022-10-08T03:57:05.693Z,95710.06
2022-10-08T03:59:33.317Z,95712.25
2022-10-08T04:02:00.947Z,95716.66
2022-10-08T04:04:30.047Z,95719.25
2022-10-08T04:06:57.662Z,95716.25
2022-10-08T04:09:25.415Z,95714.88
2022-10-08T04:11:52.996Z,95713.09
2022-10-08T04:14:20.576Z,95714.63
2022-10-08T04:16:50.691Z,95719.69
2022-10-08T04:19:18.372Z,95721.63
2022-10-08T04:21:47.340Z,95719.97
2022-10-08T04:24:14.909Z,95726.56
2022-10-08T04:26:42.565Z,95724.19
2022-10-08T04:29:12.470Z,95722.53
2022-10-08T04:31:40.441Z,95721.84
2022-10-08T04:34:08.224Z,95720.91
2022-10-08T04:36:35.848Z,95709.38
2022-10-08T04:39:04.879Z,95719.13
2022-10-08T04:41:32.453Z,95719.25
2022-10-08T04:44:01.302Z,95711.84
2022-10-08T04:46:29.489Z,95720.38
2022-10-08T04:49:00.160Z,95718.88
2022-10-08T04:51:28.489Z,95724.91
2022-10-08T04:53:57.704Z,95722.72
2022-10-08T04:56:29.413Z,95728.63
2022-10-08T04:58:58.921Z,95730.16
2022-10-08T05:01:28.180Z,95723.16
2022-10-08T05:03:57.404Z,95726.16
2022-10-08T05:06:28.053Z,95723.84
2022-10-08T05:08:56.354Z,95725.38
2022-10-08T05:11:27.152Z,95732.38
2022-10-08T05:13:56.066Z,95733.88
2022-10-08T05:16:24.112Z,95736.66
2022-10-08T05:18:52.522Z,95729.34
2022-10-08T05:21:22.266Z,95730.19
2022-10-08T05:23:54.843Z,95736.34
2022-10-08T05:26:41.488Z,95742.13
2022-10-08T05:29:13.616Z,95740.75
2022-10-08T05:31:41.185Z,95749.56
2022-10-08T05:34:08.781Z,95741.59
2022-10-08T05:36:36.514Z,95747.50
2022-10-08T05:39:06.049Z,95744.34
2022-10-08T05:41:35.391Z,95746.81
2022-10-08T05:44:03.055Z,95752.31
2022-10-08T05:46:33.697Z,95747.22
2022-10-08T05:49:03.306Z,95747.09
2022-10-08T05:51:31.344Z,95749.16
2022-10-08T05:54:00.947Z,95748.88
2022-10-08T05:56:29.403Z,95756.72
2022-10-08T05:58:57.049Z,95750.28
2022-10-08T06:01:28.055Z,95761.13
2022-10-08T06:03:59.046Z,95760.16
2022-10-08T06:06:27.026Z,95761.28
2022-10-08T06:08:55.573Z,95759.03
2022-10-08T06:11:23.339Z,95770.22
2022-10-08T06:13:53.029Z,95762.38
2022-10-08T06:16:21.443Z,95767.34
2022-10-08T06:18:49.531Z,95780.41
2022-10-08T06:21:23.365Z,95781.50
2022-10-08T06:23:52.885Z,95787.00
2022-10-08T06:26:22.086Z,95781.75
2022-10-08T06:28:50.804Z,95781.88
2022-10-08T06:31:19.075Z,95782.44
2022-10-08T06:33:47.049Z,95781.06
2022-10-08T06:36:16.228Z,95787.41
2022-10-08T06:38:50.289Z,95794.44
2022-10-08T06:41:18.106Z,95794.16
2022-10-08T06:43:46.310Z,95794.31
2022-10-08T06:46:14.315Z,95798.97
2022-10-08T06:48:42.409Z,95799.78
2022-10-08T06:51:13.259Z,95805.19
2022-10-08T06:53:41.924Z,95800.75
2022-10-08T06:56:14.508Z,95801.88
2022-10-08T06:58:44.883Z,95806.38
2022-10-08T07:01:18.338Z,95813.13
2022-10-08T07:03:50.438Z,95805.28
2022-10-08T07:06:19.031Z,95809.69
2022-10-08T07:08:47.069Z,95816.44
2022-10-08T07:11:18.062Z,95819.72
2022-10-08T07:13:45.877Z,95821.78
2022-10-08T07:16:19.732Z,95827.16
2022-10-08T07:18:49.898Z,95828.50
2022-10-08T07:21:19.688Z,95834.94
2022-10-08T07:23:47.525Z,95844.72
2022-10-08T07:26:18.280Z,95837.81
2022-10-08T07:28:50.908Z,95832.84
2022-10-08T07:31:20.739Z,95840.13
2022-10-08T07:33:48.397Z,95840.53
2022-10-08T07:36:18.067Z,95842.56
2022-10-08T07:38:45.861Z,95843.41
2022-10-08T07:41:14.234Z,95846.59
2022-10-08T07:43:43.364Z,95843.69
2022-10-08T07:46:12.506Z,95845.34
2022-10-08T07:48:40.367Z,95842.72
2022-10-08T07:51:10.278Z,95846.38
2022-10-08T07:53:38.291Z,95845.00
2022-10-08T07:56:06.600Z,95843.59
2022-10-08T07:58:34.834Z,95850.34
2022-10-08T08:01:06.491Z,95855.28
2022-10-08T08:03:34.165Z,95851.31
2022-10-08T08:06:02.553Z,95848.94
2022-10-08T08:08:30.182Z,95852.25
2022-10-08T08:10:58.598Z,95852.63
2022-10-08T08:13:26.417Z,95852.03
2022-10-08T08:15:58.049Z,95846.13
2022-10-08T08:18:30.044Z,95853.63
2022-10-08T08:21:01.223Z,95852.09
2022-10-08T08:23:31.681Z,95857.16
2022-10-08T08:26:04.432Z,95855.78
2022-10-08T08:28:32.274Z,95853.16
2022-10-08T08:31:08.513Z,95846.91
2022-10-08T08:33:37.592Z,95849.41
2022-10-08T08:36:06.032Z,95853.38
2022-10-08T08:38:35.841Z,95857.00
2022-10-08T08:41:13.148Z,95856.34
2022-10-08T08:43:42.437Z,95850.66
2022-10-08T08:46:15.295Z,95855.69
2022-10-08T08:48:46.540Z,95855.69
2022-10-08T08:51:14.187Z,95856.69
2022-10-08T08:53:41.805Z,95859.59
2022-10-08T08:56:14.064Z,95867.69
2022-10-08T08:58:46.122Z,95864.78
2022-10-08T09:01:22.186Z,95857.97
2022-10-08T09:03:55.926Z,95857.97
2022-10-08T09:06:25.917Z,95859.31
2022-10-08T09:08:57.253Z,95859.44
2022-10-08T09:11:25.270Z,95865.78
2022-10-08T09:13:57.647Z,95857.91
2022-10-08T09:16:28.099Z,95865.56
2022-10-08T09:18:57.120Z,95863.94
2022-10-08T09:21:26.451Z,95868.13
2022-10-08T09:23:54.041Z,95861.38
2022-10-08T09:26:24.227Z,95866.47
2022-10-08T09:28:54.067Z,95869.63
2022-10-08T09:31:28.244Z,95876.06
2022-10-08T09:34:01.950Z,95874.19
2022-10-08T09:36:31.884Z,95866.63
2022-10-08T09:39:02.679Z,95872.75
2022-10-08T09:41:30.278Z,95868.56
2022-10-08T09:44:24.872Z,95867.50
2022-10-08T09:47:07.562Z,95866.91
2022-10-08T09:49:38.379Z,95859.13
2022-10-08T09:52:16.750Z,95864.16
2022-10-08T09:54:48.815Z,95859.41
2022-10-08T09:57:18.171Z,95862.31
2022-10-08T09:59:52.886Z,95855.25
2022-10-08T10:02:29.887Z,95859.31
2022-10-08T10:05:00.439Z,95872.25
2022-10-08T10:07:39.127Z,95861.88
2022-10-08T10:10:23.186Z,95869.50
2022-10-08T10:12:55.965Z,95867.28
2022-10-08T10:15:28.057Z,95868.78
2022-10-08T10:17:58.467Z,95864.38
2022-10-08T10:20:31.500Z,95866.00
2022-10-08T10:23:02.705Z,95870.91
2022-10-08T10:25:39.476Z,95870.78
2022-10-08T10:28:12.490Z,95869.94
2022-10-08T10:30:51.923Z,95870.34
2022-10-08T10:33:24.675Z,95865.63
2022-10-08T10:35:57.027Z,95871.16
2022-10-08T10:38:27.805Z,95869.63
2022-10-08T10:41:08.447Z,95867.34
2022-10-08T10:43:44.039Z,95868.19
2022-10-08T10:46:26.221Z,95863.75
2022-10-08T10:48:53.893Z,95861.75
2022-10-08T10:51:57.954Z,95856.75
2022-10-08T10:54:39.645Z,95853.28
2022-10-08T10:57:13.591Z,95847.25
2022-10-08T10:59:47.271Z,95853.63
2022-10-08T11:02:24.741Z,95860.69
2022-10-08T11:05:07.667Z,95860.69
2022-10-08T11:07:58.553Z,95847.38
2022-10-08T11:10:40.242Z,95843.03
2022-10-08T11:13:22.432Z,95852.16
2022-10-08T11:16:02.157Z,95846.75
2022-10-08T11:18:38.379Z,95848.69
2022-10-08T11:21:16.604Z,95849.13
2022-10-08T11:24:00.643Z,95858.25
2022-10-08T11:26:36.832Z,95850.28
2022-10-08T11:29:14.250Z,95853.34
2022-10-08T11:31:43.487Z,95852.66
2022-10-08T11:34:23.306Z,95848.53
2022-10-08T11:36:59.628Z,95839.66
2022-10-08T11:39:36.902Z,95845.19
2022-10-08T11:42:13.355Z,95842.47
2022-10-08T11:44:43.917Z,95843.03
2022-10-08T11:47:36.907Z,95837.22
2022-10-08T11:50:06.574Z,95836.53
2022-10-08T11:52:35.260Z,95842.06
2022-10-08T11:55:04.610Z,95832.25
2022-10-08T11:58:06.167Z,95837.50
2022-10-08T12:00:42.290Z,95834.59
2022-10-08T12:03:23.477Z,95833.75
2022-10-08T12:05:53.777Z,95832.72
2022-10-08T12:08:51.311Z,95837.31
2022-10-08T12:11:58.772Z,95829.94
2022-10-08T12:14:48.475Z,95827.19
2022-10-08T12:17:16.802Z,95828.59
2022-10-08T12:20:19.789Z,95832.06
2022-10-08T12:23:07.501Z,95835.50
2022-10-08T12:25:40.713Z,95832.53
2022-10-08T12:28:39.269Z,95825.66
2022-10-08T12:31:26.397Z,95836.56
2022-10-08T12:34:03.094Z,95820.94
2022-10-08T12:36:42.766Z,95827.03
2022-10-08T12:39:19.270Z,95811.31
2022-10-08T12:41:54.499Z,95826.19
2022-10-08T12:44:40.135Z,95825.00
2022-10-08T12:47:19.345Z,95819.69
2022-10-08T12:49:54.492Z,95815.06
2022-10-08T12:52:23.101Z,95811.44
2022-10-08T12:54:52.936Z,95818.69
2022-10-08T12:57:23.618Z,95822.16
2022-10-08T12:59:51.854Z,95814.13
2022-10-08T13:02:31.243Z,95820.44
2022-10-08T13:04:59.261Z,95816.31
2022-10-08T13:07:29.016Z,95811.13
2022-10-08T13:09:58.362Z,95810.69
2022-10-08T13:12:26.475Z,95822.97
2022-10-08T13:15:03.685Z,95817.78
2022-10-08T13:17:34.647Z,95827.63
2022-10-08T13:20:15.366Z,95834.44
2022-10-08T13:22:43.346Z,95839.22
2022-10-08T13:25:36.683Z,95841.41
2022-10-08T13:28:12.351Z,95833.94
2022-10-08T13:30:40.318Z,95839.09
2022-10-08T13:33:16.429Z,95830.91
2022-10-08T13:35:45.260Z,95832.75
2022-10-08T13:38:21.847Z,95835.81
2022-10-08T13:40:51.241Z,95826.63
2022-10-08T13:43:19.205Z,95829.69
2022-10-08T13:45:47.105Z,95840.16
2022-10-08T13:48:16.191Z,95830.97
2022-10-08T13:50:45.488Z,95840.78
2022-10-08T13:53:15.970Z,95832.91
2022-10-08T13:55:45.790Z,95832.09
2022-10-08T13:58:14.797Z,95832.03
2022-10-08T14:00:44.233Z,95829.91
2022-10-08T14:03:13.490Z,95832.03
2022-10-08T14:05:45.868Z,95834.78
2022-10-08T14:08:16.532Z,95835.38
2022-10-08T14:10:45.026Z,95838.66
2022-10-08T14:13:14.521Z,95838.97
2022-10-08T14:15:42.432Z,95840.00
2022-10-08T14:18:09.962Z,95836.31
2022-10-08T14:20:38.177Z,95834.69
2022-10-08T14:23:07.483Z,95837.84
2022-10-08T14:25:35.110Z,95845.66
2022-10-08T14:28:02.861Z,95846.00
2022-10-08T14:30:30.580Z,95851.16
2022-10-08T14:32:58.280Z,95851.63
2022-10-08T14:35:25.901Z,95851.06
2022-10-08T14:37:53.462Z,95857.94
2022-10-08T14:40:23.300Z,95857.50
2022-10-08T14:42:51.609Z,95858.72
2022-10-08T14:45:19.514Z,95861.84
2022-10-08T14:47:47.158Z,95872.63
2022-10-08T14:50:14.812Z,95872.38
2022-10-08T14:52:44.505Z,95871.03
2022-10-08T14:55:13.222Z,95872.81
2022-10-08T14:57:42.232Z,95868.56
2022-10-08T15:00:11.231Z,95866.78
2022-10-08T15:02:39.001Z,95871.47
2022-10-08T15:05:07.518Z,95868.59
2022-10-08T15:07:35.308Z,95864.19
2022-10-08T15:10:02.906Z,95862.84
2022-10-08T15:12:30.561Z,95864.72
2022-10-08T15:14:59.519Z,95868.09
2022-10-08T15:17:27.129Z,95875.66
2022-10-08T15:19:54.781Z,95877.03
2022-10-08T15:22:22.389Z,95880.84
2022-10-08T15:24:50.031Z,95880.78
2022-10-08T15:27:20.804Z,95885.41
2022-10-08T15:29:48.683Z,95879.09
2022-10-08T15:32:17.616Z,95881.50
2022-10-08T15:34:45.295Z,95883.59
2022-10-08T15:37:14.554Z,95877.38
2022-10-08T15:39:42.146Z,95885.25
2022-10-08T15:42:12.075Z,95889.53
2022-10-08T15:44:40.074Z,95885.75
2022-10-08T15:47:11.588Z,95882.22
2022-10-08T15:49:42.322Z,95886.84
2022-10-08T15:52:11.822Z,95889.88
2022-10-08T15:54:40.409Z,95894.66
2022-10-08T15:57:09.911Z,95898.31
2022-10-08T15:59:37.783Z,95895.69
2022-10-08T16:02:05.973Z,95901.00
2022-10-08T16:04:34.247Z,95907.28
2022-10-08T16:07:03.276Z,95912.38
2022-10-08T16:09:30.871Z,95909.31
2022-10-08T16:11:58.470Z,95909.28
2022-10-08T16:14:27.812Z,95915.91
2022-10-08T16:16:55.739Z,95906.84
2022-10-08T16:19:26.025Z,95911.84
2022-10-08T16:21:55.610Z,95916.50
2022-10-08T16:24:24.691Z,95914.28
2022-10-08T16:26:52.941Z,95919.81
2022-10-08T16:29:20.674Z,95919.53
2022-10-08T16:31:48.803Z,95929.34
2022-10-08T16:34:18.401Z,95936.69
2022-10-08T16:36:48.011Z,95942.69
2022-10-08T16:39:17.871Z,95938.44
2022-10-08T16:41:47.402Z,95941.50
2022-10-08T16:44:16.820Z,95945.06
2022-10-08T16:46:48.279Z,95945.59
2022-10-08T16:49:23.775Z,95950.34
2022-10-08T16:51:53.180Z,95947.88
2022-10-08T16:54:20.846Z,95954.25
2022-10-08T16:56:49.776Z,95962.63
2022-10-08T16:59:20.003Z,95971.59
2022-10-08T17:01:50.220Z,95971.34
2022-10-08T17:04:19.511Z,95974.22
2022-10-08T17:06:47.619Z,95977.41
2022-10-08T17:09:15.483Z,95982.50
2022-10-08T17:11:43.405Z,95991.72
2022-10-08T17:14:12.680Z,95998.63
2022-10-08T17:16:43.129Z,96000.13
2022-10-08T17:19:10.990Z,96002.34
2022-10-08T17:21:38.961Z,96003.19
2022-10-08T17:24:07.143Z,96010.19
2022-10-08T17:26:34.985Z,96019.00
2022-10-08T17:29:08.538Z,96020.13
2022-10-08T17:31:38.021Z,96020.38
2022-10-08T17:34:06.543Z,96033.09
2022-10-08T17:36:36.510Z,96031.28
2022-10-08T17:39:07.399Z,96038.72
2022-10-08T17:41:36.765Z,96030.44
2022-10-08T17:44:06.760Z,96033.75
2022-10-08T17:46:36.623Z,96043.81
2022-10-08T17:49:06.119Z,96042.84
2022-10-08T17:51:34.331Z,96050.25
2022-10-08T17:54:03.994Z,96045.03
2022-10-08T17:56:32.273Z,96051.94
2022-10-08T17:59:01.061Z,96050.94
2022-10-08T18:04:21.961Z,96052.31
2022-10-08T18:06:50.241Z,96055.91
2022-10-08T18:09:19.817Z,96061.81
2022-10-08T18:11:50.837Z,96057.38
2022-10-08T18:14:18.872Z,96066.91
2022-10-08T18:16:48.537Z,96072.13
2022-10-08T18:19:16.769Z,96073.38
2022-10-08T18:21:45.785Z,96075.00
2022-10-08T18:24:13.805Z,96079.16
2022-10-08T18:26:41.570Z,96084.41
2022-10-08T18:29:11.530Z,96080.09
2022-10-08T18:31:41.497Z,96083.94
2022-10-08T18:34:11.099Z,96092.03
2022-10-08T18:36:39.791Z,96085.66
2022-10-08T18:39:11.972Z,96100.88
2022-10-08T18:41:41.727Z,96094.13
2022-10-08T18:44:12.721Z,96092.88
2022-10-08T18:46:40.394Z,96099.59
2022-10-08T18:49:10.095Z,96113.25
2022-10-08T18:51:37.689Z,96103.63
2022-10-08T18:54:05.498Z,96112.16
2022-10-08T18:56:38.610Z,96111.19
2022-10-08T18:59:07.972Z,96112.88
2022-10-08T19:01:38.493Z,96120.47
2022-10-08T19:04:09.663Z,96122.69
2022-10-08T19:06:39.656Z,96127.28
2022-10-08T19:09:07.687Z,96134.88
2022-10-08T19:11:43.406Z,96140.00
2022-10-08T19:14:14.115Z,96142.53
2022-10-08T19:16:42.447Z,96140.50
2022-10-08T19:19:15.138Z,96147.88
2022-10-08T19:21:42.843Z,96150.78
2022-10-08T19:24:17.183Z,96152.72
2022-10-08T19:26:46.878Z,96158.97
2022-10-08T19:29:16.551Z,96159.72
2022-10-08T19:31:47.318Z,96154.59
2022-10-08T19:34:17.256Z,96166.28
2022-10-08T19:36:45.507Z,96167.56
2022-10-08T19:39:15.138Z,96173.44
2022-10-08T19:41:43.633Z,96185.50
2022-10-08T19:44:13.289Z,96190.13
2022-10-08T19:46:40.998Z,96181.75
2022-10-08T19:49:09.825Z,96191.63
2022-10-08T19:51:38.171Z,96196.50
2022-10-08T19:54:06.306Z,96198.88
2022-10-08T19:56:34.134Z,96201.16
2022-10-08T19:59:01.782Z,96204.25
2022-10-08T20:01:33.531Z,96201.81
2022-10-08T20:04:02.746Z,96201.13
2022-10-08T20:06:32.779Z,96205.94
2022-10-08T20:09:02.237Z,96209.84
2022-10-08T20:11:31.497Z,96210.38
2022-10-08T20:14:00.534Z,96208.41
2022-10-08T20:16:32.650Z,96210.66
2022-10-08T20:19:02.486Z,96217.25
2022-10-08T20:21:31.757Z,96222.59
2022-10-08T20:23:59.538Z,96223.53
2022-10-08T20:26:28.719Z,96232.41
2022-10-08T20:28:59.315Z,96233.50
2022-10-08T20:31:29.504Z,96230.19
2022-10-08T20:33:59.769Z,96232.19
2022-10-08T20:36:28.244Z,96235.31
2022-10-08T20:38:56.286Z,96243.00
2022-10-08T20:41:28.198Z,96239.19
2022-10-08T20:44:00.529Z,96249.19
2022-10-08T20:46:28.533Z,96245.47
2022-10-08T20:48:57.773Z,96242.09
2022-10-08T20:51:26.769Z,96245.13
2022-10-08T20:53:56.087Z,96244.88
2022-10-08T20:56:24.665Z,96253.34
2022-10-08T20:58:53.291Z,96251.16
2022-10-08T21:01:23.472Z,96242.06
2022-10-08T21:03:52.326Z,96242.81
2022-10-08T21:06:24.033Z,96248.72
2022-10-08T21:08:55.067Z,96253.56
2022-10-08T21:11:25.151Z,96253.97
2022-10-08T21:13:52.871Z,96249.69
2022-10-08T21:16:23.130Z,96247.09
2022-10-08T21:18:52.039Z,96256.44
2022-10-08T21:21:21.260Z,96261.16
2022-10-08T21:23:50.693Z,96264.00
2022-10-08T21:26:20.186Z,96267.69
2022-10-08T21:28:50.049Z,96268.47
2022-10-08T21:31:19.222Z,96270.03
2022-10-08T21:33:49.043Z,96277.63
2022-10-08T21:36:18.715Z,96274.25
2022-10-08T21:38:48.176Z,96273.78
2022-10-08T21:41:17.934Z,96277.31
2022-10-08T21:43:47.250Z,96281.69
2022-10-08T21:46:16.623Z,96278.63
2022-10-08T21:48:44.657Z,96279.97
2022-10-08T21:51:14.704Z,96283.91
2022-10-08T21:53:47.562Z,96278.81
2022-10-08T21:56:17.418Z,96274.88
2022-10-08T21:58:46.913Z,96275.00
2022-10-08T22:01:22.868Z,96283.06
2022-10-08T22:03:54.244Z,96279.63
2022-10-08T22:06:21.918Z,96280.69
2022-10-08T22:08:51.399Z,96280.97
2022-10-08T22:11:20.502Z,96277.63
2022-10-08T22:13:48.170Z,96268.97
2022-10-08T22:16:17.869Z,96278.72
2022-10-08T22:18:45.881Z,96277.88
2022-10-08T22:21:15.643Z,96280.72
2022-10-08T22:23:43.375Z,96279.91
2022-10-08T22:26:14.216Z,96272.44
2022-10-08T22:28:42.056Z,96269.34
2022-10-08T22:31:12.021Z,96266.97
2022-10-08T22:33:40.083Z,96269.00
2022-10-08T22:36:09.721Z,96264.63
2022-10-08T22:38:39.351Z,96264.84
2022-10-08T22:41:09.202Z,96264.97
2022-10-08T22:43:39.243Z,96261.66
2022-10-08T22:46:08.767Z,96263.91
2022-10-08T22:48:36.684Z,96271.59
2022-10-08T22:51:05.949Z,96269.22
2022-10-08T22:53:34.019Z,96264.06
2022-10-08T22:56:04.532Z,96263.84
2022-10-08T22:58:32.151Z,96263.88
2022-10-08T23:01:02.538Z,96264.47
2022-10-08T23:03:31.303Z,96265.91
2022-10-08T23:06:06.829Z,96266.50
2022-10-08T23:08:35.692Z,96267.31
2022-10-08T23:11:04.354Z,96255.09
2022-10-08T23:13:32.350Z,96262.34
2022-10-08T23:16:02.925Z,96259.75
2022-10-08T23:18:31.450Z,96265.09
2022-10-08T23:21:02.621Z,96252.38
2022-10-08T23:23:30.950Z,96245.25
2022-10-08T23:26:00.233Z,96248.22
2022-10-08T23:28:28.256Z,96244.22
2022-10-08T23:30:55.967Z,96255.78
2022-10-08T23:33:24.982Z,96260.31
2022-10-08T23:35:56.406Z,96251.63
2022-10-08T23:38:24.238Z,96256.41
2022-10-08T23:40:52.013Z,96245.63
2022-10-08T23:43:19.568Z,96258.75
2022-10-08T23:45:47.198Z,96253.09
2022-10-08T23:48:14.824Z,96247.03
2022-10-08T23:50:43.779Z,96249.06
2022-10-08T23:53:11.772Z,96251.78
2022-10-08T23:55:39.294Z,96252.13
2022-10-08T23:58:06.849Z,96253.78
